sensor_id;sensor_type;location;lat;lon;timestamp;pressure;altitude;pressure_sealevel;temperature;humidity
43153;BME280;28756;49.064;9.290;2023-04-09T00:02:16;99829.06;;;3.46;100.00
43153;BME280;28756;49.064;9.290;2023-04-09T00:04:42;99827.34;;;3.47;100.00
43153;BME280;28756;49.064;9.290;2023-04-09T00:07:08;99823.88;;;3.48;100.00
43153;BME280;28756;49.064;9.290;2023-04-09T00:09:34;99823.06;;;3.46;100.00
43153;BME280;28756;49.064;9.290;2023-04-09T00:12:00;99827.41;;;3.42;100.00
43153;BME280;28756;49.064;9.290;2023-04-09T00:14:26;99826.59;;;3.39;100.00
43153;BME280;28756;49.064;9.290;2023-04-09T00:16:52;99817.19;;;3.38;100.00
43153;BME280;28756;49.064;9.290;2023-04-09T00:19:19;99819.75;;;3.36;100.00
43153;BME280;28756;49.064;9.290;2023-04-09T00:21:45;99827.50;;;3.35;100.00
43153;BME280;28756;49.064;9.290;2023-04-09T00:24:11;99824.06;;;3.36;100.00
43153;BME280;28756;49.064;9.290;2023-04-09T00:26:37;99819.69;;;3.42;100.00
43153;BME280;28756;49.064;9.290;2023-04-09T00:29:03;99826.56;;;3.40;100.00
43153;BME280;28756;49.064;9.290;2023-04-09T00:31:28;99822.28;;;3.39;100.00
43153;BME280;28756;49.064;9.290;2023-04-09T00:33:54;99823.22;;;3.34;100.00
43153;BME280;28756;49.064;9.290;2023-04-09T00:36:20;99822.47;;;3.25;100.00
43153;BME280;28756;49.064;9.290;2023-04-09T00:38:46;99821.53;;;3.31;100.00
43153;BME280;28756;49.064;9.290;2023-04-09T00:41:14;99813.84;;;3.29;100.00
43153;BME280;28756;49.064;9.290;2023-04-09T00:43:40;99815.56;;;3.30;100.00
43153;BME280;28756;49.064;9.290;2023-04-09T00:46:05;99818.91;;;3.36;100.00
43153;BME280;28756;49.064;9.290;2023-04-09T00:48:31;99818.88;;;3.37;100.00
43153;BME280;28756;49.064;9.290;2023-04-09T00:50:57;99818.00;;;3.41;100.00
43153;BME280;28756;49.064;9.290;2023-04-09T00:53:23;99811.91;;;3.47;100.00
43153;BME280;28756;49.064;9.290;2023-04-09T00:55:49;99823.81;;;3.53;100.00
43153;BME280;28756;49.064;9.290;2023-04-09T00:58:15;99816.94;;;3.55;100.00
43153;BME280;28756;49.064;9.290;2023-04-09T01:00:41;99813.53;;;3.53;100.00
43153;BME280;28756;49.064;9.290;2023-04-09T01:03:07;99814.41;;;3.52;100.00
43153;BME280;28756;49.064;9.290;2023-04-09T01:06:17;99815.28;;;3.49;100.00
43153;BME280;28756;49.064;9.290;2023-04-09T01:12:22;99812.75;;;3.47;100.00
43153;BME280;28756;49.064;9.290;2023-04-09T01:15:10;99813.63;;;3.46;100.00
43153;BME280;28756;49.064;9.290;2023-04-09T01:20:27;99811.09;;;3.45;100.00
43153;BME280;28756;49.064;9.290;2023-04-09T01:23:17;99809.47;;;3.38;100.00
43153;BME280;28756;49.064;9.290;2023-04-09T01:28:56;99810.31;;;3.38;100.00
43153;BME280;28756;49.064;9.290;2023-04-09T01:31:35;99805.13;;;3.41;100.00
43153;BME280;28756;49.064;9.290;2023-04-09T01:34:01;99808.56;;;3.40;100.00
43153;BME280;28756;49.064;9.290;2023-04-09T01:36:30;99800.88;;;3.39;100.00
43153;BME280;28756;49.064;9.290;2023-04-09T01:38:56;99805.09;;;3.43;100.00
43153;BME280;28756;49.064;9.290;2023-04-09T01:41:25;99813.66;;;3.43;100.00
43153;BME280;28756;49.064;9.290;2023-04-09T01:43:52;99807.69;;;3.40;100.00
43153;BME280;28756;49.064;9.290;2023-04-09T01:46:20;99808.50;;;3.45;100.00
43153;BME280;28756;49.064;9.290;2023-04-09T01:48:46;99807.56;;;3.52;100.00
43153;BME280;28756;49.064;9.290;2023-04-09T01:51:13;99811.81;;;3.52;100.00
43153;BME280;28756;49.064;9.290;2023-04-09T01:53:40;99811.00;;;3.51;100.00
43153;BME280;28756;49.064;9.290;2023-04-09T01:56:07;99810.16;;;3.51;100.00
43153;BME280;28756;49.064;9.290;2023-04-09T01:58:33;99808.38;;;3.53;100.00
43153;BME280;28756;49.064;9.290;2023-04-09T02:01:14;99807.56;;;3.52;100.00
43153;BME280;28756;49.064;9.290;2023-04-09T02:03:50;99808.44;;;3.50;100.00
43153;BME280;28756;49.064;9.290;2023-04-09T02:06:36;99810.16;;;3.51;100.00
43153;BME280;28756;49.064;9.290;2023-04-09T02:09:07;99814.44;;;3.50;100.00
43153;BME280;28756;49.064;9.290;2023-04-09T02:11:36;99811.84;;;3.50;100.00
43153;BME280;28756;49.064;9.290;2023-04-09T02:14:03;99809.28;;;3.50;100.00
43153;BME280;28756;49.064;9.290;2023-04-09T02:16:31;99807.56;;;3.52;100.00
43153;BME280;28756;49.064;9.290;2023-04-09T02:18:57;99813.50;;;3.56;100.00
43153;BME280;28756;49.064;9.290;2023-04-09T02:21:26;99815.03;;;3.68;100.00
43153;BME280;28756;49.064;9.290;2023-04-09T02:23:53;99812.34;;;3.77;100.00
43153;BME280;28756;49.064;9.290;2023-04-09T02:26:21;99808.00;;;3.81;100.00
43153;BME280;28756;49.064;9.290;2023-04-09T02:28:46;99795.06;;;3.85;100.00
43153;BME280;28756;49.064;9.290;2023-04-09T02:31:12;99795.78;;;3.93;100.00
43153;BME280;28756;49.064;9.290;2023-04-09T02:33:38;99795.75;;;3.95;100.00
43153;BME280;28756;49.064;9.290;2023-04-09T02:36:05;99794.84;;;3.98;100.00
43153;BME280;28756;49.064;9.290;2023-04-09T02:38:31;99790.53;;;4.00;100.00
43153;BME280;28756;49.064;9.290;2023-04-09T02:40:56;99797.38;;;4.02;100.00
43153;BME280;28756;49.064;9.290;2023-04-09T02:43:22;99787.91;;;4.03;100.00
43153;BME280;28756;49.064;9.290;2023-04-09T02:45:48;99795.63;;;4.04;100.00
43153;BME280;28756;49.064;9.290;2023-04-09T02:48:14;99793.00;;;4.06;100.00
43153;BME280;28756;49.064;9.290;2023-04-09T02:50:40;99795.63;;;4.04;100.00
43153;BME280;28756;49.064;9.290;2023-04-09T02:53:05;99795.63;;;4.04;100.00
43153;BME280;28756;49.064;9.290;2023-04-09T02:55:31;99791.38;;;4.02;100.00
43153;BME280;28756;49.064;9.290;2023-04-09T02:57:57;99794.81;;;4.01;100.00
43153;BME280;28756;49.064;9.290;2023-04-09T03:00:22;99795.63;;;4.03;100.00
43153;BME280;28756;49.064;9.290;2023-04-09T03:02:48;99786.16;;;4.05;100.00
43153;BME280;28756;49.064;9.290;2023-04-09T03:05:14;99790.47;;;4.03;100.00
43153;BME280;28756;49.064;9.290;2023-04-09T03:07:40;99787.09;;;4.01;100.00
43153;BME280;28756;49.064;9.290;2023-04-09T03:10:06;99785.38;;;4.01;100.00
43153;BME280;28756;49.064;9.290;2023-04-09T03:12:31;99779.34;;;4.02;100.00
43153;BME280;28756;49.064;9.290;2023-04-09T03:14:57;99778.47;;;4.03;100.00
43153;BME280;28756;49.064;9.290;2023-04-09T03:17:23;99773.28;;;4.05;100.00
43153;BME280;28756;49.064;9.290;2023-04-09T03:19:52;99774.16;;;4.05;100.00
43153;BME280;28756;49.064;9.290;2023-04-09T03:22:18;99780.19;;;4.04;100.00
43153;BME280;28756;49.064;9.290;2023-04-09T03:24:44;99775.03;;;4.04;100.00
43153;BME280;28756;49.064;9.290;2023-04-09T03:27:09;99774.16;;;4.05;100.00
43153;BME280;28756;49.064;9.290;2023-04-09T03:29:35;99770.72;;;4.06;100.00
43153;BME280;28756;49.064;9.290;2023-04-09T03:32:01;99781.00;;;4.05;100.00
43153;BME280;28756;49.064;9.290;2023-04-09T03:34:26;99774.16;;;4.04;100.00
43153;BME280;28756;49.064;9.290;2023-04-09T03:36:52;99771.66;;;4.01;100.00
43153;BME280;28756;49.064;9.290;2023-04-09T03:39:18;99775.94;;;4.02;100.00
43153;BME280;28756;49.064;9.290;2023-04-09T03:41:43;99771.66;;;3.99;100.00
43153;BME280;28756;49.064;9.290;2023-04-09T03:44:09;99774.22;;;4.01;100.00
43153;BME280;28756;49.064;9.290;2023-04-09T03:46:35;99775.94;;;4.00;100.00
43153;BME280;28756;49.064;9.290;2023-04-09T03:49:01;99775.94;;;4.00;100.00
43153;BME280;28756;49.064;9.290;2023-04-09T03:51:26;99785.44;;;3.98;100.00
43153;BME280;28756;49.064;9.290;2023-04-09T03:53:52;99777.72;;;3.97;100.00
43153;BME280;28756;49.064;9.290;2023-04-09T03:56:18;99776.84;;;3.98;100.00
43153;BME280;28756;49.064;9.290;2023-04-09T03:58:44;99774.31;;;3.96;100.00
43153;BME280;28756;49.064;9.290;2023-04-09T04:01:09;99775.13;;;3.97;100.00
43153;BME280;28756;49.064;9.290;2023-04-09T04:03:35;99786.25;;;3.99;100.00
43153;BME280;28756;49.064;9.290;2023-04-09T04:06:02;99778.50;;;4.00;100.00
43153;BME280;28756;49.064;9.290;2023-04-09T04:08:28;99777.72;;;3.98;100.00
43153;BME280;28756;49.064;9.290;2023-04-09T04:10:54;99770.88;;;3.97;100.00
43153;BME280;28756;49.064;9.290;2023-04-09T04:13:20;99771.66;;;3.99;100.00
43153;BME280;28756;49.064;9.290;2023-04-09T04:15:46;99774.22;;;3.99;100.00
43153;BME280;28756;49.064;9.290;2023-04-09T04:18:12;99772.56;;;3.98;100.00
43153;BME280;28756;49.064;9.290;2023-04-09T04:20:38;99775.13;;;3.97;100.00
43153;BME280;28756;49.064;9.290;2023-04-09T04:23:04;99777.72;;;3.98;100.00
43153;BME280;28756;49.064;9.290;2023-04-09T04:25:30;99779.41;;;3.98;100.00
43153;BME280;28756;49.064;9.290;2023-04-09T04:27:57;99783.72;;;3.97;100.00
43153;BME280;28756;49.064;9.290;2023-04-09T04:30:22;99799.16;;;3.97;100.00
43153;BME280;28756;49.064;9.290;2023-04-09T04:32:49;99790.59;;;3.98;100.00
43153;BME280;28756;49.064;9.290;2023-04-09T04:35:15;99794.03;;;3.97;100.00
43153;BME280;28756;49.064;9.290;2023-04-09T04:37:41;99791.53;;;3.91;100.00
43153;BME280;28756;49.064;9.290;2023-04-09T04:40:08;99797.56;;;3.90;100.00
43153;BME280;28756;49.064;9.290;2023-04-09T04:42:34;99799.31;;;3.88;100.00
43153;BME280;28756;49.064;9.290;2023-04-09T04:45:00;99807.91;;;3.87;100.00
43153;BME280;28756;49.064;9.290;2023-04-09T04:47:25;99806.16;;;3.87;100.00
43153;BME280;28756;49.064;9.290;2023-04-09T04:49:51;99804.38;;;3.92;100.00
43153;BME280;28756;49.064;9.290;2023-04-09T04:52:17;99800.09;;;3.91;100.00
43153;BME280;28756;49.064;9.290;2023-04-09T04:54:43;99806.09;;;3.93;100.00
43153;BME280;28756;49.064;9.290;2023-04-09T04:57:09;99802.66;;;3.93;100.00
43153;BME280;28756;49.064;9.290;2023-04-09T04:59:39;99804.31;;;3.95;100.00
43153;BME280;28756;49.064;9.290;2023-04-09T05:02:08;99807.69;;;3.99;100.00
43153;BME280;28756;49.064;9.290;2023-04-09T05:04:33;99800.84;;;4.00;100.00
43153;BME280;28756;49.064;9.290;2023-04-09T05:06:59;99807.66;;;4.02;100.00
43153;BME280;28756;49.064;9.290;2023-04-09T05:09:25;99811.97;;;4.00;100.00
43153;BME280;28756;49.064;9.290;2023-04-09T05:11:51;99814.53;;;4.00;100.00
43153;BME280;28756;49.064;9.290;2023-04-09T05:14:17;99809.31;;;4.05;100.00
43153;BME280;28756;49.064;9.290;2023-04-09T05:16:42;99809.31;;;4.06;100.00
43153;BME280;28756;49.064;9.290;2023-04-09T05:19:08;99814.44;;;4.08;100.00
43153;BME280;28756;49.064;9.290;2023-04-09T05:21:34;99804.94;;;4.11;100.00
43153;BME280;28756;49.064;9.290;2023-04-09T05:24:00;99808.31;;;4.15;100.00
43153;BME280;28756;49.064;9.290;2023-04-09T05:26:26;99809.09;;;4.19;100.00
43153;BME280;28756;49.064;9.290;2023-04-09T05:28:52;99808.16;;;4.23;100.00
43153;BME280;28756;49.064;9.290;2023-04-09T05:31:17;99808.97;;;4.26;100.00
43153;BME280;28756;49.064;9.290;2023-04-09T05:33:43;99815.84;;;4.26;100.00
43153;BME280;28756;49.064;9.290;2023-04-09T05:36:15;99817.47;;;4.30;100.00
43153;BME280;28756;49.064;9.290;2023-04-09T05:38:43;99807.19;;;4.32;100.00
43153;BME280;28756;49.064;9.290;2023-04-09T05:41:08;99817.41;;;4.35;100.00
43153;BME280;28756;49.064;9.290;2023-04-09T05:43:34;99811.31;;;4.40;100.00
43153;BME280;28756;49.064;9.290;2023-04-09T05:46:00;99808.66;;;4.45;100.00
43153;BME280;28756;49.064;9.290;2023-04-09T05:48:26;99810.31;;;4.48;100.00
43153;BME280;28756;49.064;9.290;2023-04-09T05:50:52;99810.25;;;4.52;100.00
43153;BME280;28756;49.064;9.290;2023-04-09T05:53:18;99802.38;;;4.58;100.00
43153;BME280;28756;49.064;9.290;2023-04-09T05:55:45;99801.38;;;4.67;100.00
43153;BME280;28756;49.064;9.290;2023-04-09T05:58:11;99806.34;;;4.78;100.00
43153;BME280;28756;49.064;9.290;2023-04-09T06:00:37;99801.06;;;4.84;100.00
43153;BME280;28756;49.064;9.290;2023-04-09T06:03:03;99806.22;;;4.84;100.00
43153;BME280;28756;49.064;9.290;2023-04-09T06:05:29;99810.31;;;4.95;100.00
43153;BME280;28756;49.064;9.290;2023-04-09T06:07:55;99809.31;;;5.02;100.00
43153;BME280;28756;49.064;9.290;2023-04-09T06:10:21;99810.00;;;5.10;100.00
43153;BME280;28756;49.064;9.290;2023-04-09T06:12:47;99810.59;;;5.23;100.00
43153;BME280;28756;49.064;9.290;2023-04-09T06:15:12;99807.00;;;5.30;100.00
43153;BME280;28756;49.064;9.290;2023-04-09T06:17:38;99800.00;;;5.35;100.00
43153;BME280;28756;49.064;9.290;2023-04-09T06:20:04;99798.75;;;5.55;100.00
43153;BME280;28756;49.064;9.290;2023-04-09T06:22:31;99796.53;;;5.76;100.00
43153;BME280;28756;49.064;9.290;2023-04-09T06:24:56;99798.97;;;5.82;100.00
43153;BME280;28756;49.064;9.290;2023-04-09T06:27:22;99796.06;;;5.96;100.00
43153;BME280;28756;49.064;9.290;2023-04-09T06:29:48;99786.75;;;6.26;100.00
43153;BME280;28756;49.064;9.290;2023-04-09T06:32:13;99771.63;;;6.45;100.00
43153;BME280;28756;49.064;9.290;2023-04-09T06:34:39;99770.22;;;7.55;100.00
43153;BME280;28756;49.064;9.290;2023-04-09T06:37:05;99760.13;;;8.77;100.00
43153;BME280;28756;49.064;9.290;2023-04-09T06:39:31;99765.66;;;8.91;100.00
43153;BME280;28756;49.064;9.290;2023-04-09T06:41:57;99762.13;;;8.94;100.00
43153;BME280;28756;49.064;9.290;2023-04-09T06:44:23;99753.31;;;9.87;100.00
43153;BME280;28756;49.064;9.290;2023-04-09T06:46:49;99747.91;;;10.74;100.00
43153;BME280;28756;49.064;9.290;2023-04-09T06:49:15;99743.59;;;10.94;100.00
43153;BME280;28756;49.064;9.290;2023-04-09T06:51:41;99745.56;;;11.08;100.00
43153;BME280;28756;49.064;9.290;2023-04-09T06:54:07;99754.56;;;9.99;100.00
43153;BME280;28756;49.064;9.290;2023-04-09T06:56:36;99760.38;;;9.62;100.00
43153;BME280;28756;49.064;9.290;2023-04-09T06:59:01;99745.47;;;10.30;100.00
43153;BME280;28756;49.064;9.290;2023-04-09T07:01:28;99744.00;;;11.22;100.00
43153;BME280;28756;49.064;9.290;2023-04-09T07:03:53;99748.56;;;11.36;100.00
43153;BME280;28756;49.064;9.290;2023-04-09T07:06:19;99755.69;;;10.34;100.00
43153;BME280;28756;49.064;9.290;2023-04-09T07:08:45;99760.88;;;9.93;100.00
43153;BME280;28756;49.064;9.290;2023-04-09T07:11:11;99769.81;;;9.63;100.00
43153;BME280;28756;49.064;9.290;2023-04-09T07:13:37;99756.34;;;10.19;100.00
43153;BME280;28756;49.064;9.290;2023-04-09T07:16:03;99776.31;;;9.53;100.00
43153;BME280;28756;49.064;9.290;2023-04-09T07:18:29;99767.03;;;9.90;100.00
43153;BME280;28756;49.064;9.290;2023-04-09T07:20:55;99785.59;;;9.59;100.00
43153;BME280;28756;49.064;9.290;2023-04-09T07:23:21;99788.31;;;8.86;100.00
43153;BME280;28756;49.064;9.290;2023-04-09T07:25:47;99793.69;;;8.29;100.00
43153;BME280;28756;49.064;9.290;2023-04-09T07:28:12;99791.59;;;8.67;100.00
43153;BME280;28756;49.064;9.290;2023-04-09T07:30:39;99782.59;;;9.70;100.00
43153;BME280;28756;49.064;9.290;2023-04-09T07:33:05;99778.31;;;10.32;100.00
43153;BME280;28756;49.064;9.290;2023-04-09T07:35:31;99779.59;;;9.35;100.00
43153;BME280;28756;49.064;9.290;2023-04-09T07:37:59;99792.53;;;8.89;100.00
43153;BME280;28756;49.064;9.290;2023-04-09T07:40:25;99788.88;;;9.86;100.00
43153;BME280;28756;49.064;9.290;2023-04-09T07:42:50;99788.22;;;8.89;100.00
43153;BME280;28756;49.064;9.290;2023-04-09T07:45:17;99782.72;;;9.21;100.00
43153;BME280;28756;49.064;9.290;2023-04-09T07:47:43;99788.78;;;8.74;100.00
43153;BME280;28756;49.064;9.290;2023-04-09T07:50:10;99780.03;;;8.76;100.00
43153;BME280;28756;49.064;9.290;2023-04-09T07:52:36;99785.94;;;8.80;100.00
43153;BME280;28756;49.064;9.290;2023-04-09T07:55:02;99782.31;;;8.84;100.00
43153;BME280;28756;49.064;9.290;2023-04-09T07:57:30;99781.13;;;9.40;100.00
43153;BME280;28756;49.064;9.290;2023-04-09T07:59:56;99774.47;;;10.62;100.00
43153;BME280;28756;49.064;9.290;2023-04-09T08:02:22;99769.22;;;11.76;100.00
43153;BME280;28756;49.064;9.290;2023-04-09T08:04:48;99767.09;;;11.67;100.00
43153;BME280;28756;49.064;9.290;2023-04-09T08:07:14;99767.00;;;12.23;100.00
43153;BME280;28756;49.064;9.290;2023-04-09T08:09:40;99770.09;;;11.40;100.00
43153;BME280;28756;49.064;9.290;2023-04-09T08:12:05;99782.34;;;11.00;100.00
43153;BME280;28756;49.064;9.290;2023-04-09T08:14:31;99765.97;;;11.90;100.00
43153;BME280;28756;49.064;9.290;2023-04-09T08:16:58;99767.47;;;13.14;100.00
43153;BME280;28756;49.064;9.290;2023-04-09T08:19:24;99762.13;;;12.84;86.06
43153;BME280;28756;49.064;9.290;2023-04-09T08:21:49;99765.63;;;13.32;79.83
43153;BME280;28756;49.064;9.290;2023-04-09T08:24:15;99769.84;;;13.67;94.38
43153;BME280;28756;49.064;9.290;2023-04-09T08:26:42;99764.28;;;14.03;70.28
43153;BME280;28756;49.064;9.290;2023-04-09T08:29:11;99778.84;;;13.13;75.99
43153;BME280;28756;49.064;9.290;2023-04-09T08:31:38;99776.09;;;13.32;76.35
43153;BME280;28756;49.064;9.290;2023-04-09T08:34:04;99781.88;;;13.37;68.66
43153;BME280;28756;49.064;9.290;2023-04-09T08:36:30;99781.91;;;12.72;76.28
43153;BME280;28756;49.064;9.290;2023-04-09T08:38:57;99784.03;;;12.97;75.71
43153;BME280;28756;49.064;9.290;2023-04-09T08:41:26;99779.63;;;12.66;74.80
43153;BME280;28756;49.064;9.290;2023-04-09T08:43:56;99778.72;;;13.48;72.81
43153;BME280;28756;49.064;9.290;2023-04-09T08:46:22;99769.59;;;14.61;69.89
43153;BME280;28756;49.064;9.290;2023-04-09T08:48:50;99764.16;;;15.22;62.60
43153;BME280;28756;49.064;9.290;2023-04-09T08:51:18;99763.88;;;15.27;61.02
43153;BME280;28756;49.064;9.290;2023-04-09T08:56:19;99783.47;;;13.88;54.26
43153;BME280;28756;49.064;9.290;2023-04-09T08:58:46;99790.00;;;12.32;59.85
43153;BME280;28756;49.064;9.290;2023-04-09T09:01:29;99787.63;;;13.60;69.64
43153;BME280;28756;49.064;9.290;2023-04-09T09:06:29;99786.50;;;13.80;55.78
43153;BME280;28756;49.064;9.290;2023-04-09T09:09:10;99781.69;;;13.88;54.44
43153;BME280;28756;49.064;9.290;2023-04-09T09:11:46;99774.28;;;14.56;51.95
43153;BME280;28756;49.064;9.290;2023-04-09T09:14:15;99778.44;;;14.30;54.94
43153;BME280;28756;49.064;9.290;2023-04-09T09:19:30;99780.47;;;14.25;54.53
43153;BME280;28756;49.064;9.290;2023-04-09T09:22:04;99785.34;;;13.22;57.46
43153;BME280;28756;49.064;9.290;2023-04-09T09:24:31;99787.34;;;13.01;62.32
43153;BME280;28756;49.064;9.290;2023-04-09T09:26:58;99788.09;;;12.18;61.94
43153;BME280;28756;49.064;9.290;2023-04-09T09:29:25;99789.25;;;12.12;58.95
43153;BME280;28756;49.064;9.290;2023-04-09T09:31:53;99781.34;;;11.77;67.97
43153;BME280;28756;49.064;9.290;2023-04-09T09:34:22;99792.03;;;11.90;60.47
43153;BME280;28756;49.064;9.290;2023-04-09T09:36:49;99776.75;;;12.19;57.08
43153;BME280;28756;49.064;9.290;2023-04-09T09:39:16;99786.56;;;12.31;60.68
43153;BME280;28756;49.064;9.290;2023-04-09T09:41:43;99790.66;;;12.87;48.98
43153;BME280;28756;49.064;9.290;2023-04-09T09:44:12;99784.81;;;12.99;48.48
43153;BME280;28756;49.064;9.290;2023-04-09T09:46:54;99800.34;;;11.98;49.16
43153;BME280;28756;49.064;9.290;2023-04-09T09:49:20;99790.16;;;12.80;52.96
43153;BME280;28756;49.064;9.290;2023-04-09T09:51:46;99798.75;;;12.13;51.88
43153;BME280;28756;49.064;9.290;2023-04-09T09:54:14;99798.78;;;11.58;52.29
43153;BME280;28756;49.064;9.290;2023-04-09T09:56:44;99792.94;;;11.33;50.15
43153;BME280;28756;49.064;9.290;2023-04-09T09:59:25;99781.31;;;12.83;50.26
43153;BME280;28756;49.064;9.290;2023-04-09T10:02:04;99790.22;;;12.78;51.63
43153;BME280;28756;49.064;9.290;2023-04-09T10:04:35;99777.50;;;13.22;49.30
43153;BME280;28756;49.064;9.290;2023-04-09T10:07:04;99778.63;;;12.51;53.33
43153;BME280;28756;49.064;9.290;2023-04-09T10:09:30;99786.47;;;12.15;51.96
43153;BME280;28756;49.064;9.290;2023-04-09T10:11:57;99789.09;;;11.96;52.80
43153;BME280;28756;49.064;9.290;2023-04-09T10:14:25;99789.38;;;12.27;52.30
43153;BME280;28756;49.064;9.290;2023-04-09T10:16:53;99776.53;;;12.06;51.42
43153;BME280;28756;49.064;9.290;2023-04-09T10:19:19;99770.19;;;13.45;49.48
43153;BME280;28756;49.064;9.290;2023-04-09T10:21:50;99778.03;;;12.79;49.83
43153;BME280;28756;49.064;9.290;2023-04-09T10:24:19;99771.53;;;11.65;52.97
43153;BME280;28756;49.064;9.290;2023-04-09T10:26:46;99773.59;;;12.81;54.18
43153;BME280;28756;49.064;9.290;2023-04-09T10:29:14;99768.31;;;13.31;50.80
43153;BME280;28756;49.064;9.290;2023-04-09T10:32:22;99770.16;;;13.13;53.55
43153;BME280;28756;49.064;9.290;2023-04-09T10:34:51;99764.09;;;13.76;52.13
43153;BME280;28756;49.064;9.290;2023-04-09T10:37:25;99772.66;;;12.82;55.39
43153;BME280;28756;49.064;9.290;2023-04-09T10:39:52;99759.72;;;14.07;53.77
43153;BME280;28756;49.064;9.290;2023-04-09T10:42:39;99753.91;;;15.05;51.51
43153;BME280;28756;49.064;9.290;2023-04-09T10:45:13;99761.19;;;14.42;48.91
43153;BME280;28756;49.064;9.290;2023-04-09T10:47:42;99760.63;;;14.65;47.71
43153;BME280;28756;49.064;9.290;2023-04-09T10:50:26;99766.13;;;14.01;42.62
43153;BME280;28756;49.064;9.290;2023-04-09T10:52:56;99754.53;;;15.50;45.92
43153;BME280;28756;49.064;9.290;2023-04-09T10:55:38;99745.81;;;16.04;42.37
43153;BME280;28756;49.064;9.290;2023-04-09T10:58:09;99741.47;;;15.90;41.29
43153;BME280;28756;49.064;9.290;2023-04-09T11:00:44;99747.19;;;15.55;43.02
43153;BME280;28756;49.064;9.290;2023-04-09T11:03:23;99744.50;;;15.84;44.78
43153;BME280;28756;49.064;9.290;2023-04-09T11:06:04;99742.25;;;16.05;41.29
43153;BME280;28756;49.064;9.290;2023-04-09T11:08:34;99738.16;;;16.14;39.88
43153;BME280;28756;49.064;9.290;2023-04-09T11:11:01;99736.91;;;16.20;44.47
43153;BME280;28756;49.064;9.290;2023-04-09T11:13:28;99737.09;;;16.30;40.76
43153;BME280;28756;49.064;9.290;2023-04-09T11:15:55;99736.47;;;16.26;42.38
43153;BME280;28756;49.064;9.290;2023-04-09T11:18:24;99737.94;;;15.37;43.33
43153;BME280;28756;49.064;9.290;2023-04-09T11:20:58;99746.16;;;14.00;45.04
43153;BME280;28756;49.064;9.290;2023-04-09T11:23:24;99737.53;;;14.43;46.48
43153;BME280;28756;49.064;9.290;2023-04-09T11:25:51;99740.19;;;14.13;46.00
43153;BME280;28756;49.064;9.290;2023-04-09T11:28:18;99732.56;;;14.53;46.00
43153;BME280;28756;49.064;9.290;2023-04-09T11:30:44;99738.38;;;15.02;46.31
43153;BME280;28756;49.064;9.290;2023-04-09T11:33:13;99735.84;;;13.97;45.28
43153;BME280;28756;49.064;9.290;2023-04-09T11:35:39;99733.47;;;14.09;46.72
43153;BME280;28756;49.064;9.290;2023-04-09T11:38:09;99735.09;;;13.81;46.77
43153;BME280;28756;49.064;9.290;2023-04-09T11:40:38;99740.25;;;13.34;45.34
43153;BME280;28756;49.064;9.290;2023-04-09T11:43:12;99737.00;;;12.65;46.13
43153;BME280;28756;49.064;9.290;2023-04-09T11:45:40;99742.03;;;13.02;48.75
43153;BME280;28756;49.064;9.290;2023-04-09T11:48:06;99742.78;;;12.21;49.35
43153;BME280;28756;49.064;9.290;2023-04-09T11:50:32;99742.56;;;12.75;50.04
43153;BME280;28756;49.064;9.290;2023-04-09T11:52:58;99742.28;;;12.97;46.46
43153;BME280;28756;49.064;9.290;2023-04-09T11:55:28;99738.66;;;13.16;50.75
43153;BME280;28756;49.064;9.290;2023-04-09T11:57:58;99722.63;;;14.00;50.45
43153;BME280;28756;49.064;9.290;2023-04-09T12:00:26;99719.47;;;14.38;44.52
43153;BME280;28756;49.064;9.290;2023-04-09T12:03:03;99724.44;;;13.84;44.59
43153;BME280;28756;49.064;9.290;2023-04-09T12:05:31;99725.84;;;13.89;48.69
43153;BME280;28756;49.064;9.290;2023-04-09T12:08:00;99734.63;;;13.42;45.54
43153;BME280;28756;49.064;9.290;2023-04-09T12:10:37;99733.84;;;12.92;46.14
43153;BME280;28756;49.064;9.290;2023-04-09T12:13:09;99730.53;;;12.72;49.43
43153;BME280;28756;49.064;9.290;2023-04-09T12:15:38;99735.25;;;12.82;50.01
43153;BME280;28756;49.064;9.290;2023-04-09T12:18:12;99739.34;;;12.54;48.12
43153;BME280;28756;49.064;9.290;2023-04-09T12:20:41;99749.75;;;12.03;48.31
43153;BME280;28756;49.064;9.290;2023-04-09T12:23:09;99741.09;;;12.20;47.59
43153;BME280;28756;49.064;9.290;2023-04-09T12:25:38;99734.13;;;12.03;48.37
43153;BME280;28756;49.064;9.290;2023-04-09T12:28:05;99731.19;;;12.26;47.10
43153;BME280;28756;49.064;9.290;2023-04-09T12:30:32;99735.41;;;12.29;49.05
43153;BME280;28756;49.064;9.290;2023-04-09T12:32:58;99727.00;;;12.57;49.48
43153;BME280;28756;49.064;9.290;2023-04-09T12:35:24;99722.22;;;12.82;49.52
43153;BME280;28756;49.064;9.290;2023-04-09T12:37:50;99726.28;;;13.03;48.33
43153;BME280;28756;49.064;9.290;2023-04-09T12:40:18;99723.16;;;13.29;49.57
43153;BME280;28756;49.064;9.290;2023-04-09T12:42:45;99717.75;;;13.94;48.05
43153;BME280;28756;49.064;9.290;2023-04-09T12:45:16;99712.81;;;13.73;47.14
43153;BME280;28756;49.064;9.290;2023-04-09T12:47:43;99712.19;;;14.15;48.08
43153;BME280;28756;49.064;9.290;2023-04-09T12:50:11;99708.97;;;13.65;46.00
43153;BME280;28756;49.064;9.290;2023-04-09T12:52:37;99720.38;;;13.94;45.67
43153;BME280;28756;49.064;9.290;2023-04-09T12:55:04;99711.03;;;13.43;48.38
43153;BME280;28756;49.064;9.290;2023-04-09T12:57:30;99704.53;;;13.81;49.08
43153;BME280;28756;49.064;9.290;2023-04-09T12:59:56;99701.91;;;13.51;47.67
43153;BME280;28756;49.064;9.290;2023-04-09T13:02:23;99704.13;;;13.26;49.87
43153;BME280;28756;49.064;9.290;2023-04-09T13:04:49;99701.09;;;13.18;47.88
43153;BME280;28756;49.064;9.290;2023-04-09T13:07:16;99701.38;;;12.98;48.53
43153;BME280;28756;49.064;9.290;2023-04-09T13:09:45;99696.84;;;12.68;48.68
43153;BME280;28756;49.064;9.290;2023-04-09T13:12:12;99697.38;;;12.58;48.20
43153;BME280;28756;49.064;9.290;2023-04-09T13:14:39;99694.22;;;12.52;48.56
43153;BME280;28756;49.064;9.290;2023-04-09T13:17:05;99698.34;;;12.56;49.15
43153;BME280;28756;49.064;9.290;2023-04-09T13:19:31;99687.28;;;13.00;50.30
43153;BME280;28756;49.064;9.290;2023-04-09T13:21:57;99683.88;;;13.46;49.40